sensor_id;sensor_type;location;lat;lon;timestamp;P1;durP1;ratioP1;P2;durP2;ratioP2
8488;SDS011;4281;45.772;12.852;2023-04-25T00:02:12;5.37;;;4.97;;
8488;SDS011;4281;45.772;12.852;2023-04-25T00:04:41;5.67;;;5.07;;
8488;SDS011;4281;45.772;12.852;2023-04-25T00:07:10;5.83;;;5.33;;
8488;SDS011;4281;45.772;12.852;2023-04-25T00:09:37;6.23;;;5.73;;
8488;SDS011;4281;45.772;12.852;2023-04-25T00:12:07;5.10;;;4.70;;
8488;SDS011;4281;45.772;12.852;2023-04-25T00:14:35;5.73;;;5.33;;
8488;SDS011;4281;45.772;12.852;2023-04-25T00:17:03;6.33;;;5.77;;
8488;SDS011;4281;45.772;12.852;2023-04-25T00:19:32;6.13;;;5.63;;
8488;SDS011;4281;45.772;12.852;2023-04-25T00:22:01;5.33;;;4.93;;
8488;SDS011;4281;45.772;12.852;2023-04-25T00:24:28;5.50;;;5.10;;
8488;SDS011;4281;45.772;12.852;2023-04-25T00:26:56;5.87;;;5.37;;
8488;SDS011;4281;45.772;12.852;2023-04-25T00:29:25;6.20;;;5.63;;
8488;SDS011;4281;45.772;12.852;2023-04-25T00:31:53;6.07;;;5.57;;
8488;SDS011;4281;45.772;12.852;2023-04-25T00:34:21;5.00;;;4.60;;
8488;SDS011;4281;45.772;12.852;2023-04-25T00:36:49;5.53;;;5.10;;
8488;SDS011;4281;45.772;12.852;2023-04-25T00:39:17;5.60;;;5.17;;
8488;SDS011;4281;45.772;12.852;2023-04-25T00:41:44;5.77;;;5.27;;
8488;SDS011;4281;45.772;12.852;2023-04-25T00:44:12;5.67;;;5.17;;
8488;SDS011;4281;45.772;12.852;2023-04-25T00:46:42;5.50;;;5.00;;
8488;SDS011;4281;45.772;12.852;2023-04-25T00:49:10;6.07;;;5.47;;
8488;SDS011;4281;45.772;12.852;2023-04-25T00:51:41;5.50;;;5.10;;
8488;SDS011;4281;45.772;12.852;2023-04-25T00:54:10;5.47;;;5.07;;
8488;SDS011;4281;45.772;12.852;2023-04-25T00:56:38;5.93;;;5.43;;
8488;SDS011;4281;45.772;12.852;2023-04-25T00:59:06;5.67;;;5.17;;
8488;SDS011;4281;45.772;12.852;2023-04-25T01:01:34;6.57;;;5.87;;
8488;SDS011;4281;45.772;12.852;2023-04-25T01:04:05;6.20;;;5.70;;
8488;SDS011;4281;45.772;12.852;2023-04-25T01:06:33;6.20;;;5.67;;
8488;SDS011;4281;45.772;12.852;2023-04-25T01:09:02;5.90;;;5.40;;
8488;SDS011;4281;45.772;12.852;2023-04-25T01:11:31;5.63;;;5.13;;
8488;SDS011;4281;45.772;12.852;2023-04-25T01:14:00;5.80;;;5.30;;
8488;SDS011;4281;45.772;12.852;2023-04-25T01:16:28;6.23;;;5.73;;
8488;SDS011;4281;45.772;12.852;2023-04-25T01:18:56;5.87;;;5.37;;
8488;SDS011;4281;45.772;12.852;2023-04-25T01:21:26;6.37;;;5.70;;
8488;SDS011;4281;45.772;12.852;2023-04-25T01:23:56;5.77;;;5.27;;
8488;SDS011;4281;45.772;12.852;2023-04-25T01:26:24;5.73;;;5.23;;
8488;SDS011;4281;45.772;12.852;2023-04-25T01:28:52;6.27;;;5.73;;
8488;SDS011;4281;45.772;12.852;2023-04-25T01:31:21;6.03;;;5.53;;
8488;SDS011;4281;45.772;12.852;2023-04-25T01:33:49;5.80;;;5.30;;
8488;SDS011;4281;45.772;12.852;2023-04-25T01:36:18;5.93;;;5.43;;
8488;SDS011;4281;45.772;12.852;2023-04-25T01:38:47;5.50;;;5.10;;
8488;SDS011;4281;45.772;12.852;2023-04-25T01:41:15;6.50;;;5.90;;
8488;SDS011;4281;45.772;12.852;2023-04-25T01:43:44;6.57;;;6.07;;
8488;SDS011;4281;45.772;12.852;2023-04-25T01:46:12;5.60;;;5.20;;
8488;SDS011;4281;45.772;12.852;2023-04-25T01:48:40;5.83;;;5.33;;
8488;SDS011;4281;45.772;12.852;2023-04-25T01:51:07;6.10;;;5.60;;
8488;SDS011;4281;45.772;12.852;2023-04-25T01:53:37;6.00;;;5.50;;
8488;SDS011;4281;45.772;12.852;2023-04-25T01:56:07;5.37;;;4.93;;
8488;SDS011;4281;45.772;12.852;2023-04-25T01:58:35;5.50;;;5.10;;
8488;SDS011;4281;45.772;12.852;2023-04-25T02:01:02;5.60;;;5.10;;
8488;SDS011;4281;45.772;12.852;2023-04-25T02:03:31;6.03;;;5.23;;
8488;SDS011;4281;45.772;12.852;2023-04-25T02:06:00;5.23;;;4.83;;
8488;SDS011;4281;45.772;12.852;2023-04-25T02:08:27;5.70;;;5.20;;
8488;SDS011;4281;45.772;12.852;2023-04-25T02:10:56;5.53;;;5.03;;
8488;SDS011;4281;45.772;12.852;2023-04-25T02:13:25;6.00;;;5.40;;
8488;SDS011;4281;45.772;12.852;2023-04-25T02:15:53;5.70;;;5.20;;
8488;SDS011;4281;45.772;12.852;2023-04-25T02:18:21;6.00;;;5.33;;
8488;SDS011;4281;45.772;12.852;2023-04-25T02:20:49;5.73;;;5.27;;
8488;SDS011;4281;45.772;12.852;2023-04-25T02:23:17;5.10;;;4.70;;
8488;SDS011;4281;45.772;12.852;2023-04-25T02:25:45;5.63;;;5.23;;
8488;SDS011;4281;45.772;12.852;2023-04-25T02:28:14;5.57;;;5.17;;
8488;SDS011;4281;45.772;12.852;2023-04-25T02:30:43;5.93;;;5.43;;
8488;SDS011;4281;45.772;12.852;2023-04-25T02:33:11;5.80;;;5.40;;
8488;SDS011;4281;45.772;12.852;2023-04-25T02:35:39;5.53;;;5.13;;
8488;SDS011;4281;45.772;12.852;2023-04-25T02:38:07;5.40;;;4.53;;
8488;SDS011;4281;45.772;12.852;2023-04-25T02:40:34;5.47;;;5.07;;
8488;SDS011;4281;45.772;12.852;2023-04-25T02:43:02;5.33;;;4.93;;
8488;SDS011;4281;45.772;12.852;2023-04-25T02:45:30;4.90;;;4.50;;
8488;SDS011;4281;45.772;12.852;2023-04-25T02:47:59;5.57;;;5.07;;
8488;SDS011;4281;45.772;12.852;2023-04-25T02:50:28;4.30;;;4.00;;
8488;SDS011;4281;45.772;12.852;2023-04-25T02:52:56;5.00;;;4.60;;
8488;SDS011;4281;45.772;12.852;2023-04-25T02:55:24;4.43;;;4.07;;
8488;SDS011;4281;45.772;12.852;2023-04-25T02:57:53;4.80;;;4.40;;
8488;SDS011;4281;45.772;12.852;2023-04-25T03:00:22;4.63;;;4.23;;
8488;SDS011;4281;45.772;12.852;2023-04-25T03:02:50;4.90;;;4.60;;
8488;SDS011;4281;45.772;12.852;2023-04-25T03:05:20;4.20;;;3.90;;
8488;SDS011;4281;45.772;12.852;2023-04-25T03:07:48;4.97;;;4.57;;
8488;SDS011;4281;45.772;12.852;2023-04-25T03:10:15;4.83;;;4.43;;
8488;SDS011;4281;45.772;12.852;2023-04-25T03:12:43;4.00;;;3.70;;
8488;SDS011;4281;45.772;12.852;2023-04-25T03:15:11;3.80;;;3.50;;
8488;SDS011;4281;45.772;12.852;2023-04-25T03:17:39;4.17;;;3.87;;
8488;SDS011;4281;45.772;12.852;2023-04-25T03:20:08;3.87;;;3.57;;
8488;SDS011;4281;45.772;12.852;2023-04-25T03:22:38;3.50;;;3.20;;
8488;SDS011;4281;45.772;12.852;2023-04-25T03:25:06;3.77;;;3.17;;
8488;SDS011;4281;45.772;12.852;2023-04-25T03:27:34;3.73;;;3.43;;
8488;SDS011;4281;45.772;12.852;2023-04-25T03:30:02;3.00;;;2.80;;
8488;SDS011;4281;45.772;12.852;2023-04-25T03:32:30;3.77;;;3.40;;
8488;SDS011;4281;45.772;12.852;2023-04-25T03:34:58;3.80;;;3.30;;
8488;SDS011;4281;45.772;12.852;2023-04-25T03:37:26;3.50;;;3.10;;
8488;SDS011;4281;45.772;12.852;2023-04-25T03:39:55;3.20;;;2.90;;
8488;SDS011;4281;45.772;12.852;2023-04-25T03:42:23;3.10;;;2.80;;
8488;SDS011;4281;45.772;12.852;2023-04-25T03:44:51;3.10;;;2.80;;
8488;SDS011;4281;45.772;12.852;2023-04-25T03:47:19;3.40;;;3.10;;
8488;SDS011;4281;45.772;12.852;2023-04-25T03:49:47;3.20;;;2.90;;
8488;SDS011;4281;45.772;12.852;2023-04-25T03:52:18;4.00;;;3.30;;
8488;SDS011;4281;45.772;12.852;2023-04-25T03:54:46;5.13;;;3.77;;
8488;SDS011;4281;45.772;12.852;2023-04-25T03:57:15;3.43;;;3.07;;
8488;SDS011;4281;45.772;12.852;2023-04-25T03:59:43;4.07;;;3.43;;
8488;SDS011;4281;45.772;12.852;2023-04-25T04:02:10;3.30;;;3.00;;
8488;SDS011;4281;45.772;12.852;2023-04-25T04:04:39;4.03;;;3.57;;
8488;SDS011;4281;45.772;12.852;2023-04-25T04:07:07;3.57;;;3.17;;
8488;SDS011;4281;45.772;12.852;2023-04-25T04:09:36;4.27;;;3.37;;
8488;SDS011;4281;45.772;12.852;2023-04-25T04:12:06;4.23;;;3.83;;
8488;SDS011;4281;45.772;12.852;2023-04-25T04:14:35;4.20;;;3.80;;
8488;SDS011;4281;45.772;12.852;2023-04-25T04:17:03;4.30;;;3.90;;
8488;SDS011;4281;45.772;12.852;2023-04-25T04:19:32;4.87;;;3.80;;
8488;SDS011;4281;45.772;12.852;2023-04-25T04:22:00;4.47;;;4.07;;
8488;SDS011;4281;45.772;12.852;2023-04-25T04:24:27;4.17;;;3.77;;
8488;SDS011;4281;45.772;12.852;2023-04-25T04:26:55;4.20;;;3.80;;
8488;SDS011;4281;45.772;12.852;2023-04-25T04:29:24;3.57;;;3.00;;
8488;SDS011;4281;45.772;12.852;2023-04-25T04:31:53;3.80;;;3.37;;
8488;SDS011;4281;45.772;12.852;2023-04-25T04:34:21;3.17;;;2.87;;
8488;SDS011;4281;45.772;12.852;2023-04-25T04:36:50;4.60;;;3.33;;
8488;SDS011;4281;45.772;12.852;2023-04-25T04:39:18;5.00;;;3.67;;
8488;SDS011;4281;45.772;12.852;2023-04-25T04:41:46;3.10;;;2.80;;
8488;SDS011;4281;45.772;12.852;2023-04-25T04:44:14;3.50;;;2.90;;
8488;SDS011;4281;45.772;12.852;2023-04-25T04:46:42;3.37;;;2.90;;
8488;SDS011;4281;45.772;12.852;2023-04-25T04:49:12;3.13;;;2.80;;
8488;SDS011;4281;45.772;12.852;2023-04-25T04:51:41;3.60;;;3.20;;
8488;SDS011;4281;45.772;12.852;2023-04-25T04:54:10;3.40;;;3.10;;
8488;SDS011;4281;45.772;12.852;2023-04-25T04:56:38;5.17;;;3.33;;
8488;SDS011;4281;45.772;12.852;2023-04-25T04:59:06;3.57;;;2.93;;
8488;SDS011;4281;45.772;12.852;2023-04-25T05:01:34;3.17;;;2.80;;
8488;SDS011;4281;45.772;12.852;2023-04-25T05:04:02;4.10;;;3.20;;
8488;SDS011;4281;45.772;12.852;2023-04-25T05:06:32;3.60;;;2.80;;
8488;SDS011;4281;45.772;12.852;2023-04-25T05:08:59;4.07;;;2.93;;
8488;SDS011;4281;45.772;12.852;2023-04-25T05:11:27;3.73;;;3.10;;
8488;SDS011;4281;45.772;12.852;2023-04-25T05:13:55;3.50;;;3.13;;
8488;SDS011;4281;45.772;12.852;2023-04-25T05:16:23;3.70;;;3.10;;
8488;SDS011;4281;45.772;12.852;2023-04-25T05:18:52;4.53;;;3.70;;
8488;SDS011;4281;45.772;12.852;2023-04-25T05:21:19;4.10;;;3.30;;
8488;SDS011;4281;45.772;12.852;2023-04-25T05:23:49;4.47;;;3.23;;
8488;SDS011;4281;45.772;12.852;2023-04-25T05:26:17;3.93;;;3.20;;
8488;SDS011;4281;45.772;12.852;2023-04-25T05:28:45;3.30;;;2.80;;
8488;SDS011;4281;45.772;12.852;2023-04-25T05:31:12;4.80;;;3.30;;
8488;SDS011;4281;45.772;12.852;2023-04-25T05:33:40;3.83;;;2.90;;
8488;SDS011;4281;45.772;12.852;2023-04-25T05:36:08;3.07;;;2.67;;
8488;SDS011;4281;45.772;12.852;2023-04-25T05:38:36;3.10;;;2.30;;
8488;SDS011;4281;45.772;12.852;2023-04-25T05:41:05;3.20;;;2.80;;
8488;SDS011;4281;45.772;12.852;2023-04-25T05:43:33;2.83;;;2.43;;
8488;SDS011;4281;45.772;12.852;2023-04-25T05:46:01;3.33;;;2.30;;
8488;SDS011;4281;45.772;12.852;2023-04-25T05:48:29;2.43;;;2.23;;
8488;SDS011;4281;45.772;12.852;2023-04-25T05:50:57;2.87;;;2.43;;
8488;SDS011;4281;45.772;12.852;2023-04-25T05:53:25;3.00;;;2.70;;
8488;SDS011;4281;45.772;12.852;2023-04-25T05:55:53;3.40;;;2.60;;
8488;SDS011;4281;45.772;12.852;2023-04-25T05:58:22;3.30;;;2.43;;
8488;SDS011;4281;45.772;12.852;2023-04-25T06:00:50;3.07;;;2.43;;
8488;SDS011;4281;45.772;12.852;2023-04-25T06:03:18;3.40;;;2.60;;
8488;SDS011;4281;45.772;12.852;2023-04-25T06:05:46;3.27;;;2.50;;
8488;SDS011;4281;45.772;12.852;2023-04-25T06:08:14;2.93;;;2.43;;
8488;SDS011;4281;45.772;12.852;2023-04-25T06:10:42;4.83;;;2.77;;
8488;SDS011;4281;45.772;12.852;2023-04-25T06:13:10;3.60;;;2.93;;
8488;SDS011;4281;45.772;12.852;2023-04-25T06:15:40;2.87;;;2.57;;
8488;SDS011;4281;45.772;12.852;2023-04-25T06:18:08;3.30;;;2.63;;
8488;SDS011;4281;45.772;12.852;2023-04-25T06:20:35;3.10;;;2.80;;
8488;SDS011;4281;45.772;12.852;2023-04-25T06:23:03;3.00;;;2.30;;
8488;SDS011;4281;45.772;12.852;2023-04-25T06:25:31;3.13;;;2.60;;
8488;SDS011;4281;45.772;12.852;2023-04-25T06:27:59;3.63;;;2.63;;
8488;SDS011;4281;45.772;12.852;2023-04-25T06:30:27;3.97;;;2.63;;
8488;SDS011;4281;45.772;12.852;2023-04-25T06:32:56;3.63;;;2.73;;
8488;SDS011;4281;45.772;12.852;2023-04-25T06:35:24;3.23;;;2.30;;
8488;SDS011;4281;45.772;12.852;2023-04-25T06:37:52;2.90;;;2.60;;
8488;SDS011;4281;45.772;12.852;2023-04-25T06:40:19;3.10;;;2.80;;
8488;SDS011;4281;45.772;12.852;2023-04-25T06:42:47;2.67;;;2.40;;
8488;SDS011;4281;45.772;12.852;2023-04-25T06:45:15;2.80;;;2.50;;
8488;SDS011;4281;45.772;12.852;2023-04-25T06:47:43;2.33;;;2.10;;
8488;SDS011;4281;45.772;12.852;2023-04-25T06:50:20;2.63;;;2.43;;
8488;SDS011;4281;45.772;12.852;2023-04-25T06:52:48;2.37;;;2.17;;
8488;SDS011;4281;45.772;12.852;2023-04-25T06:55:16;2.40;;;2.20;;
8488;SDS011;4281;45.772;12.852;2023-04-25T06:57:45;2.50;;;2.30;;
8488;SDS011;4281;45.772;12.852;2023-04-25T07:00:13;2.50;;;2.30;;
8488;SDS011;4281;45.772;12.852;2023-04-25T07:02:41;2.50;;;2.13;;
8488;SDS011;4281;45.772;12.852;2023-04-25T07:05:12;2.30;;;2.10;;
8488;SDS011;4281;45.772;12.852;2023-04-25T07:07:41;2.17;;;1.93;;
8488;SDS011;4281;45.772;12.852;2023-04-25T07:10:09;2.40;;;2.20;;
8488;SDS011;4281;45.772;12.852;2023-04-25T07:12:37;2.37;;;1.87;;
8488;SDS011;4281;45.772;12.852;2023-04-25T07:15:05;2.30;;;2.10;;
8488;SDS011;4281;45.772;12.852;2023-04-25T07:17:36;2.27;;;2.10;;
8488;SDS011;4281;45.772;12.852;2023-04-25T07:20:05;2.17;;;2.07;;
8488;SDS011;4281;45.772;12.852;2023-04-25T07:22:34;2.87;;;2.00;;
8488;SDS011;4281;45.772;12.852;2023-04-25T07:25:03;2.70;;;2.50;;
8488;SDS011;4281;45.772;12.852;2023-04-25T07:27:31;2.60;;;2.40;;
8488;SDS011;4281;45.772;12.852;2023-04-25T07:30:02;2.67;;;2.47;;
8488;SDS011;4281;45.772;12.852;2023-04-25T07:32:31;2.37;;;2.17;;
8488;SDS011;4281;45.772;12.852;2023-04-25T07:34:59;2.80;;;2.57;;
8488;SDS011;4281;45.772;12.852;2023-04-25T07:37:27;2.03;;;1.90;;
8488;SDS011;4281;45.772;12.852;2023-04-25T07:39:55;2.27;;;2.03;;
8488;SDS011;4281;45.772;12.852;2023-04-25T07:42:24;2.30;;;2.10;;
8488;SDS011;4281;45.772;12.852;2023-04-25T07:44:52;2.10;;;1.90;;
8488;SDS011;4281;45.772;12.852;2023-04-25T07:47:20;2.17;;;1.90;;
8488;SDS011;4281;45.772;12.852;2023-04-25T07:49:48;1.97;;;1.87;;
8488;SDS011;4281;45.772;12.852;2023-04-25T07:52:16;2.40;;;2.20;;
8488;SDS011;4281;45.772;12.852;2023-04-25T07:54:44;3.23;;;2.93;;
8488;SDS011;4281;45.772;12.852;2023-04-25T07:57:14;3.10;;;2.80;;
8488;SDS011;4281;45.772;12.852;2023-04-25T07:59:46;3.13;;;2.83;;
8488;SDS011;4281;45.772;12.852;2023-04-25T08:02:14;2.87;;;2.57;;
8488;SDS011;4281;45.772;12.852;2023-04-25T08:04:42;3.03;;;2.80;;
8488;SDS011;4281;45.772;12.852;2023-04-25T08:07:10;2.60;;;1.97;;
8488;SDS011;4281;45.772;12.852;2023-04-25T08:09:37;1.70;;;1.60;;
8488;SDS011;4281;45.772;12.852;2023-04-25T08:12:05;1.60;;;1.50;;
8488;SDS011;4281;45.772;12.852;2023-04-25T08:14:33;1.63;;;1.53;;
8488;SDS011;4281;45.772;12.852;2023-04-25T08:17:07;1.77;;;1.40;;
8488;SDS011;4281;45.772;12.852;2023-04-25T08:19:35;3.70;;;1.70;;
8488;SDS011;4281;45.772;12.852;2023-04-25T08:22:02;3.13;;;2.60;;
8488;SDS011;4281;45.772;12.852;2023-04-25T08:24:30;2.57;;;2.17;;
8488;SDS011;4281;45.772;12.852;2023-04-25T08:26:58;2.30;;;2.10;;
8488;SDS011;4281;45.772;12.852;2023-04-25T08:29:26;2.33;;;2.10;;
8488;SDS011;4281;45.772;12.852;2023-04-25T08:31:54;2.30;;;2.03;;
8488;SDS011;4281;45.772;12.852;2023-04-25T08:34:24;2.43;;;1.70;;
8488;SDS011;4281;45.772;12.852;2023-04-25T08:36:53;1.60;;;1.50;;
8488;SDS011;4281;45.772;12.852;2023-04-25T08:39:21;2.80;;;1.87;;
8488;SDS011;4281;45.772;12.852;2023-04-25T08:41:49;1.70;;;1.60;;
8488;SDS011;4281;45.772;12.852;2023-04-25T08:44:18;1.73;;;1.60;;
8488;SDS011;4281;45.772;12.852;2023-04-25T08:46:47;1.30;;;1.20;;
8488;SDS011;4281;45.772;12.852;2023-04-25T08:49:16;1.50;;;1.40;;
8488;SDS011;4281;45.772;12.852;2023-04-25T08:51:46;1.27;;;1.17;;
8488;SDS011;4281;45.772;12.852;2023-04-25T08:54:17;1.30;;;1.20;;
8488;SDS011;4281;45.772;12.852;2023-04-25T08:57:01;1.43;;;1.10;;
8488;SDS011;4281;45.772;12.852;2023-04-25T08:59:30;2.07;;;1.50;;
8488;SDS011;4281;45.772;12.852;2023-04-25T09:02:00;1.30;;;1.20;;
8488;SDS011;4281;45.772;12.852;2023-04-25T09:04:29;2.10;;;1.30;;
8488;SDS011;4281;45.772;12.852;2023-04-25T09:06:59;1.47;;;1.37;;
8488;SDS011;4281;45.772;12.852;2023-04-25T09:09:27;1.30;;;1.20;;
8488;SDS011;4281;45.772;12.852;2023-04-25T09:11:54;1.57;;;1.30;;
8488;SDS011;4281;45.772;12.852;2023-04-25T09:14:22;1.17;;;1.10;;
8488;SDS011;4281;45.772;12.852;2023-04-25T09:16:59;1.30;;;1.20;;
8488;SDS011;4281;45.772;12.852;2023-04-25T09:19:29;1.30;;;1.20;;
8488;SDS011;4281;45.772;12.852;2023-04-25T09:22:03;1.20;;;1.10;;
8488;SDS011;4281;45.772;12.852;2023-04-25T09:24:32;1.30;;;1.20;;
8488;SDS011;4281;45.772;12.852;2023-04-25T09:27:02;1.50;;;1.20;;
8488;SDS011;4281;45.772;12.852;2023-04-25T09:29:31;1.53;;;1.43;;
8488;SDS011;4281;45.772;12.852;2023-04-25T09:32:12;1.40;;;1.30;;
8488;SDS011;4281;45.772;12.852;2023-04-25T09:34:44;1.20;;;1.10;;
8488;SDS011;4281;45.772;12.852;2023-04-25T09:37:19;1.40;;;1.23;;
8488;SDS011;4281;45.772;12.852;2023-04-25T09:39:48;1.67;;;1.40;;
8488;SDS011;4281;45.772;12.852;2023-04-25T09:42:17;1.60;;;1.50;;
8488;SDS011;4281;45.772;12.852;2023-04-25T09:44:45;1.60;;;1.50;;
8488;SDS011;4281;45.772;12.852;2023-04-25T09:47:14;2.27;;;1.90;;
8488;SDS011;4281;45.772;12.852;2023-04-25T09:49:42;2.50;;;2.23;;
8488;SDS011;4281;45.772;12.852;2023-04-25T09:52:13;2.40;;;2.20;;
8488;SDS011;4281;45.772;12.852;2023-04-25T09:54:43;2.60;;;2.40;;
8488;SDS011;4281;45.772;12.852;2023-04-25T09:57:12;2.40;;;2.20;;
8488;SDS011;4281;45.772;12.852;2023-04-25T09:59:43;3.00;;;2.50;;
8488;SDS011;4281;45.772;12.852;2023-04-25T10:02:13;2.40;;;2.10;;
8488;SDS011;4281;45.772;12.852;2023-04-25T10:04:44;2.23;;;2.00;;
8488;SDS011;4281;45.772;12.852;2023-04-25T10:07:13;2.37;;;2.17;;
8488;SDS011;4281;45.772;12.852;2023-04-25T10:09:43;2.47;;;2.13;;
8488;SDS011;4281;45.772;12.852;2023-04-25T10:12:13;3.00;;;2.20;;
8488;SDS011;4281;45.772;12.852;2023-04-25T10:14:41;3.23;;;2.27;;
8488;SDS011;4281;45.772;12.852;2023-04-25T10:17:10;2.90;;;2.60;;
8488;SDS011;4281;45.772;12.852;2023-04-25T10:19:40;3.10;;;2.80;;
8488;SDS011;4281;45.772;12.852;2023-04-25T10:22:08;3.03;;;2.70;;
8488;SDS011;4281;45.772;12.852;2023-04-25T10:24:39;3.10;;;2.80;;
8488;SDS011;4281;45.772;12.852;2023-04-25T10:27:09;3.10;;;2.77;;
8488;SDS011;4281;45.772;12.852;2023-04-25T10:29:38;2.70;;;2.50;;
8488;SDS011;4281;45.772;12.852;2023-04-25T10:32:06;2.60;;;2.13;;
8488;SDS011;4281;45.772;12.852;2023-04-25T10:34:37;2.40;;;2.20;;
8488;SDS011;4281;45.772;12.852;2023-04-25T10:37:09;2.20;;;2.00;;
8488;SDS011;4281;45.772;12.852;2023-04-25T10:39:39;1.90;;;1.70;;
8488;SDS011;4281;45.772;12.852;2023-04-25T10:42:10;1.83;;;1.70;;
8488;SDS011;4281;45.772;12.852;2023-04-25T10:44:40;2.27;;;1.80;;
8488;SDS011;4281;45.772;12.852;2023-04-25T10:47:10;2.20;;;1.90;;
8488;SDS011;4281;45.772;12.852;2023-04-25T10:49:41;2.07;;;1.80;;
8488;SDS011;4281;45.772;12.852;2023-04-25T10:52:16;2.03;;;1.83;;
8488;SDS011;4281;45.772;12.852;2023-04-25T10:54:48;2.33;;;2.13;;
8488;SDS011;4281;45.772;12.852;2023-04-25T10:57:36;2.40;;;2.13;;
8488;SDS011;4281;45.772;12.852;2023-04-25T11:00:08;2.67;;;2.47;;
8488;SDS011;4281;45.772;12.852;2023-04-25T11:02:42;4.43;;;3.47;;
8488;SDS011;4281;45.772;12.852;2023-04-25T11:05:20;4.63;;;4.13;;
8488;SDS011;4281;45.772;12.852;2023-04-25T11:07:50;3.60;;;3.30;;
8488;SDS011;4281;45.772;12.852;2023-04-25T11:10:32;3.47;;;3.17;;
8488;SDS011;4281;45.772;12.852;2023-04-25T11:13:03;3.30;;;3.00;;
8488;SDS011;4281;45.772;12.852;2023-04-25T11:15:31;2.87;;;2.50;;
8488;SDS011;4281;45.772;12.852;2023-04-25T11:17:59;2.60;;;2.40;;
8488;SDS011;4281;45.772;12.852;2023-04-25T11:20:28;2.30;;;2.10;;
8488;SDS011;4281;45.772;12.852;2023-04-25T11:22:57;2.20;;;1.93;;
8488;SDS011;4281;45.772;12.852;2023-04-25T11:25:32;2.13;;;1.93;;
8488;SDS011;4281;45.772;12.852;2023-04-25T11:28:04;2.33;;;2.13;;
8488;SDS011;4281;45.772;12.852;2023-04-25T11:30:32;3.60;;;3.30;;
8488;SDS011;4281;45.772;12.852;2023-04-25T11:32:59;3.10;;;2.80;;
8488;SDS011;4281;45.772;12.852;2023-04-25T11:35:29;2.97;;;2.67;;
8488;SDS011;4281;45.772;12.852;2023-04-25T11:37:59;2.57;;;2.30;;
8488;SDS011;4281;45.772;12.852;2023-04-25T11:40:27;2.30;;;2.10;;
8488;SDS011;4281;45.772;12.852;2023-04-25T11:42:56;2.00;;;1.90;;
8488;SDS011;4281;45.772;12.852;2023-04-25T11:45:29;2.13;;;1.60;;
8488;SDS011;4281;45.772;12.852;2023-04-25T11:47:57;1.80;;;1.70;;
8488;SDS011;4281;45.772;12.852;2023-04-25T11:50:25;2.17;;;1.70;;
8488;SDS011;4281;45.772;12.852;2023-04-25T11:52:56;2.07;;;1.87;;
8488;SDS011;4281;45.772;12.852;2023-04-25T11:55:24;1.67;;;1.57;;
8488;SDS011;4281;45.772;12.852;2023-04-25T11:57:52;1.77;;;1.67;;
8488;SDS011;4281;45.772;12.852;2023-04-25T12:00:22;1.47;;;1.37;;
8488;SDS011;4281;45.772;12.852;2023-04-25T12:02:52;1.80;;;1.70;;
8488;SDS011;4281;45.772;12.852;2023-04-25T12:05:23;1.40;;;1.30;;
8488;SDS011;4281;45.772;12.852;2023-04-25T12:08:09;1.60;;;1.50;;
8488;SDS011;4281;45.772;12.852;2023-04-25T12:10:38;1.50;;;1.40;;
8488;SDS011;4281;45.772;12.852;2023-04-25T12:13:17;1.50;;;1.20;;
8488;SDS011;4281;45.772;12.852;2023-04-25T12:15:47;1.30;;;1.20;;
8488;SDS011;4281;45.772;12.852;2023-04-25T12:18:18;1.40;;;1.30;;
8488;SDS011;4281;45.772;12.852;2023-04-25T12:20:47;1.30;;;1.10;;
8488;SDS011;4281;45.772;12.852;2023-04-25T12:23:14;1.33;;;1.23;;
8488;SDS011;4281;45.772;12.852;2023-04-25T12:25:43;1.37;;;1.10;;
8488;SDS011;4281;45.772;12.852;2023-04-25T12:28:14;1.37;;;1.27;;
8488;SDS011;4281;45.772;12.852;2023-04-25T12:30:52;1.30;;;1.20;;
8488;SDS011;4281;45.772;12.852;2023-04-25T12:33:23;1.30;;;1.13;;
8488;SDS011;4281;45.772;12.852;2023-04-25T12:35:52;1.47;;;1.20;;
8488;SDS011;4281;45.772;12.852;2023-04-25T12:38:20;1.40;;;1.10;;
8488;SDS011;4281;45.772;12.852;2023-04-25T12:40:49;1.30;;;1.20;;
8488;SDS011;4281;45.772;12.852;2023-04-25T12:43:16;1.43;;;1.30;;
8488;SDS011;4281;45.772;12.852;2023-04-25T12:45:45;1.20;;;1.10;;
8488;SDS011;4281;45.772;12.852;2023-04-25T12:48:15;1.17;;;1.07;;
8488;SDS011;4281;45.772;12.852;2023-04-25T12:50:44;1.33;;;1.10;;
8488;SDS011;4281;45.772;12.852;2023-04-25T12:53:15;1.33;;;1.10;;
8488;SDS011;4281;45.772;12.852;2023-04-25T12:55:43;1.23;;;1.13;;
8488;SDS011;4281;45.772;12.852;2023-04-25T12:58:13;1.00;;;0.90;;
8488;SDS011;4281;45.772;12.852;2023-04-25T13:00:42;0.90;;;0.90;;
8488;SDS011;4281;45.772;12.852;2023-04-25T13:03:10;1.03;;;0.90;;
8488;SDS011;4281;45.772;12.852;2023-04-25T13:05:39;1.17;;;0.90;;
8488;SDS011;4281;45.772;12.852;2023-04-25T13:08:08;0.80;;;0.80;;
8488;SDS011;4281;45.772;12.852;2023-04-25T13:10:36;1.57;;;1.00;;
8488;SDS011;4281;45.772;12.852;2023-04-25T13:13:05;1.10;;;1.00;;
8488;SDS011;4281;45.772;12.852;2023-04-25T13:15:33;1.00;;;1.00;;
8488;SDS011;4281;45.772;12.852;2023-04-25T13:18:01;1.00;;;1.00;;
8488;SDS011;4281;45.772;12.852;2023-04-25T13:20:29;1.33;;;1.10;;
8488;SDS011;4281;45.772;12.852;2023-04-25T13:22:57;0.97;;;0.97;;
8488;SDS011;4281;45.772;12.852;2023-04-25T13:25:29;1.00;;;0.90;;
8488;SDS011;4281;45.772;12.852;2023-04-25T13:27:57;1.20;;;1.10;;
8488;SDS011;4281;45.772;12.852;2023-04-25T13:30:26;1.20;;;1.10;;
8488;SDS011;4281;45.772;12.852;2023-04-25T13:32:54;0.90;;;0.90;;
8488;SDS011;4281;45.772;12.852;2023-04-25T13:35:23;0.80;;;0.80;;
8488;SDS011;4281;45.772;12.852;2023-04-25T13:37:52;0.90;;;0.90;;
8488;SDS011;4281;45.772;12.852;2023-04-25T13:40:20;1.00;;;0.90;;
8488;SDS011;4281;45.772;12.852;2023-04-25T13:42:52;1.33;;;1.20;;
8488;SDS011;4281;45.772;12.852;2023-04-25T13:45:20;1.10;;;1.00;;
8488;SDS011;4281;45.772;12.852;2023-04-25T13:47:48;0.80;;;0.80;;
8488;SDS011;4281;45.772;12.852;2023-04-25T13:50:16;0.87;;;0.87;;
8488;SDS011;4281;45.772;12.852;2023-04-25T13:52:44;0.90;;;0.90;;
8488;SDS011;4281;45.772;12.852;2023-04-25T13:55:12;1.03;;;0.90;;
8488;SDS011;4281;45.772;12.852;2023-04-25T13:57:40;0.80;;;0.80;;
8488;SDS011;4281;45.772;12.852;2023-04-25T14:00:10;0.90;;;0.90;;
8488;SDS011;4281;45.772;12.852;2023-04-25T14:02:40;1.17;;;0.90;;
8488;SDS011;4281;45.772;12.852;2023-04-25T14:05:09;0.80;;;0.80;;
8488;SDS011;4281;45.772;12.852;2023-04-25T14:07:37;0.70;;;0.70;;
8488;SDS011;4281;45.772;12.852;2023-04-25T14:10:05;1.03;;;0.87;;
8488;SDS011;4281;45.772;12.852;2023-04-25T14:12:33;1.63;;;1.47;;
8488;SDS011;4281;45.772;12.852;2023-04-25T14:15:02;1.57;;;1.40;;
8488;SDS011;4281;45.772;12.852;2023-04-25T14:17:31;1.17;;;1.10;;
8488;SDS011;4281;45.772;12.852;2023-04-25T14:19:59;1.03;;;0.97;;
8488;SDS011;4281;45.772;12.852;2023-04-25T14:22:28;1.03;;;0.80;;
8488;SDS011;4281;45.772;12.852;2023-04-25T14:24:56;1.10;;;1.00;;
8488;SDS011;4281;45.772;12.852;2023-04-25T14:27:24;1.30;;;1.20;;
8488;SDS011;4281;45.772;12.852;2023-04-25T14:29:54;1.07;;;1.00;;
8488;SDS011;4281;45.772;12.852;2023-04-25T14:32:22;0.90;;;0.90;;
8488;SDS011;4281;45.772;12.852;2023-04-25T14:34:51;1.63;;;1.23;;
8488;SDS011;4281;45.772;12.852;2023-04-25T14:37:19;0.90;;;0.90;;
8488;SDS011;4281;45.772;12.852;2023-04-25T14:39:47;0.80;;;0.80;;
8488;SDS011;4281;45.772;12.852;2023-04-25T14:42:15;1.00;;;0.90;;
8488;SDS011;4281;45.772;12.852;2023-04-25T14:44:43;0.90;;;0.90;;
8488;SDS011;4281;45.772;12.852;2023-04-25T14:47:11;0.90;;;0.90;;
8488;SDS011;4281;45.772;12.852;2023-04-25T14:49:39;0.80;;;0.80;;
8488;SDS011;4281;45.772;12.852;2023-04-25T14:52:09;1.20;;;1.00;;
8488;SDS011;4281;45.772;12.852;2023-04-25T14:54:39;1.30;;;0.90;;
8488;SDS011;4281;45.772;12.852;2023-04-25T14:57:06;1.43;;;1.00;;
8488;SDS011;4281;45.772;12.852;2023-04-25T14:59:34;1.20;;;1.10;;
8488;SDS011;4281;45.772;12.852;2023-04-25T15:02:02;1.13;;;0.93;;
8488;SDS011;4281;45.772;12.852;2023-04-25T15:04:30;1.40;;;1.03;;
8488;SDS011;4281;45.772;12.852;2023-04-25T15:06:58;0.90;;;0.87;;
8488;SDS011;4281;45.772;12.852;2023-04-25T15:09:28;1.07;;;1.00;;
8488;SDS011;4281;45.772;12.852;2023-04-25T15:11:57;1.27;;;0.90;;